Time;durP1;ratioP1;P1;durP2;ratioP2;P2;SDS_P1;SDS_P2;PMS_P1;PMS_P2;Temp;Humidity;BMP_temperature;BMP_pressure;BME280_temperature;BME280_humidity;BME280_pressure;Samples;Min_cycle;Max_cycle;Signal;HPM_P1;HPM_P2
2021/07/15 00:01:35;;;;;;;;;;;;;;;26.32;58.63;99509.78;5093150;28;19975;-48
2021/07/15 00:04:00;;;;;;;;;;;;;;;26.16;59.01;99507.78;5092915;28;19916;-49
2021/07/15 00:06:26;;;;;;;;;;;;;;;26.32;58.46;99504.34;5092730;28;19916;-51
2021/07/15 00:08:52;;;;;;;;;;;;;;;26.62;57.79;99510.09;5092794;28;20386;-52
2021/07/15 00:11:17;;;;;;;;;;;;;;;26.54;57.75;99508.13;5092882;28;19942;-52
2021/07/15 00:13:42;;;;;;;;;;;;;;;26.36;57.93;99509.97;5092874;28;19912;-50
2021/07/15 00:16:09;;;;;;;;;;;;;;;26.62;57.50;99517.50;5092655;28;19975;-50
2021/07/15 00:18:35;;;;;;;;;;;;;;;26.56;57.62;99519.53;5102456;28;19924;-53
2021/07/15 00:21:01;;;;;;;;;;;;;;;26.65;57.44;99517.63;5112914;28;19922;-51
2021/07/15 00:23:26;;;;;;;;;;;;;;;26.62;57.32;99514.75;5112773;28;19912;-51
2021/07/15 00:25:52;;;;;;;;;;;;;;;26.29;58.09;99504.97;5112817;28;19934;-49
2021/07/15 00:28:17;;;;;;;;;;;;;;;26.38;57.93;99515.91;5112849;28;19998;-51
2021/07/15 00:30:42;;;;;;;;;;;;;;;26.32;58.43;99519.91;5112779;28;19912;-38
2021/07/15 00:33:08;;;;;;;;;;;;;;;26.36;58.03;99512.69;5112334;28;19923;-38
2021/07/15 00:35:33;;;;;;;;;;;;;;;25.97;59.46;99510.72;5112316;28;19919;-37
2021/07/15 00:37:59;;;;;;;;;;;;;;;26.23;58.51;99510.88;5096410;28;20347;-38
2021/07/15 00:40:24;;;;;;;;;;;;;;;26.20;58.62;99506.03;5091985;28;20056;-37
2021/07/15 00:42:49;;;;;;;;;;;;;;;26.22;58.71;99507.34;5091824;28;20015;-38
2021/07/15 00:45:16;;;;;;;;;;;;;;;26.48;57.88;99514.81;5092102;28;19916;-38
2021/07/15 00:47:41;;;;;;;;;;;;;;;26.60;57.60;99515.06;5092057;28;19942;-38
2021/07/15 00:50:07;;;;;;;;;;;;;;;26.80;56.80;99507.41;5092836;28;19956;-38
2021/07/15 00:52:32;;;;;;;;;;;;;;;26.97;56.40;99506.66;5092352;28;19943;-38
2021/07/15 00:54:58;;;;;;;;;;;;;;;26.74;56.77;99497.78;5092406;28;20319;-38
2021/07/15 00:57:23;;;;;;;;;;;;;;;26.24;58.41;99513.28;5092646;28;20304;-37
2021/07/15 00:59:50;;;;;;;;;;;;;;;25.99;58.92;99506.59;5074035;28;20002;-38
2021/07/15 01:02:15;;;;;;;;;;;;;;;25.58;60.37;99507.56;5091250;28;19935;-37
2021/07/15 01:04:40;;;;;;;;;;;;;;;26.63;56.97;99505.44;5092388;28;20365;-38
2021/07/15 01:07:06;;;;;;;;;;;;;;;25.61;60.31;99500.66;5091965;28;19916;-39
2021/07/15 01:09:31;;;;;;;;;;;;;;;25.32;61.44;99508.16;5091214;28;19912;-38
2021/07/15 01:11:59;;;;;;;;;;;;;;;25.10;61.99;99514.31;5092122;28;19938;-38
2021/07/15 01:14:26;;;;;;;;;;;;;;;25.40;61.21;99503.91;5091927;28;19961;-38
2021/07/15 01:16:57;;;;;;;;;;;;;;;25.18;61.88;99505.44;5092171;28;19997;-38
2021/07/15 01:19:41;;;;;;;;;;;;;;;25.52;60.86;99501.41;5091925;28;19985;-38
2021/07/15 01:22:28;;;;;;;;;;;;;;;25.41;61.17;99499.25;5091827;28;19935;-38
2021/07/15 01:25:12;;;;;;;;;;;;;;;25.16;61.94;99499.47;5090810;28;19913;-38
2021/07/15 01:27:54;;;;;;;;;;;;;;;25.26;61.75;99493.03;5091989;28;19965;-38
2021/07/15 01:30:26;;;;;;;;;;;;;;;25.21;61.71;99486.88;5090955;28;19920;-39
2021/07/15 01:33:15;;;;;;;;;;;;;;;24.92;62.91;99486.16;5090553;28;19912;-38
2021/07/15 01:36:04;;;;;;;;;;;;;;;24.91;63.05;99489.97;5088285;28;19912;-38
2021/07/15 01:38:34;;;;;;;;;;;;;;;25.16;62.28;99487.81;5088637;28;20007;-38
2021/07/15 01:41:03;;;;;;;;;;;;;;;25.25;62.15;99482.47;5090746;28;19916;-38
2021/07/15 01:43:31;;;;;;;;;;;;;;;25.16;62.23;99483.16;5090526;28;19947;-38
2021/07/15 01:45:57;;;;;;;;;;;;;;;25.01;62.74;99485.41;5091778;28;19971;-39
2021/07/15 01:48:23;;;;;;;;;;;;;;;24.93;63.26;99481.50;5090376;28;20368;-38
2021/07/15 01:50:48;;;;;;;;;;;;;;;24.77;63.79;99486.47;5090572;28;19923;-37
2021/07/15 01:53:13;;;;;;;;;;;;;;;24.85;63.50;99485.75;5090727;28;20003;-38
2021/07/15 01:55:39;;;;;;;;;;;;;;;24.68;63.78;99488.28;5091820;28;19912;-39
2021/07/15 01:58:05;;;;;;;;;;;;;;;25.05;62.66;99486.41;5091686;28;19912;-38
2021/07/15 02:00:30;;;;;;;;;;;;;;;25.25;61.73;99479.75;5093268;28;20378;-37
2021/07/15 02:02:56;;;;;;;;;;;;;;;25.10;62.50;99475.41;5094744;28;20032;-38
2021/07/15 02:05:21;;;;;;;;;;;;;;;25.36;61.52;99489.28;5094557;28;19912;-38
2021/07/15 02:07:46;;;;;;;;;;;;;;;25.27;61.71;99482.97;5094548;28;19999;-38
2021/07/15 02:10:13;;;;;;;;;;;;;;;25.33;61.67;99495.34;5094338;28;19934;-38
2021/07/15 02:12:38;;;;;;;;;;;;;;;25.21;61.92;99481.41;5095768;28;19938;-37
2021/07/15 02:15:04;;;;;;;;;;;;;;;25.16;62.05;99491.31;5094391;28;19929;-38
2021/07/15 02:17:29;;;;;;;;;;;;;;;25.31;61.76;99482.03;5094928;28;19958;-38
2021/07/15 02:19:55;;;;;;;;;;;;;;;25.28;61.84;99487.28;5114505;28;20184;-38
2021/07/15 02:22:20;;;;;;;;;;;;;;;25.10;61.90;99481.66;5114920;28;19919;-38
2021/07/15 02:24:46;;;;;;;;;;;;;;;25.15;61.30;99491.63;5114850;28;20459;-38
2021/07/15 02:27:11;;;;;;;;;;;;;;;25.18;60.79;99496.47;5114716;28;20329;-38
2021/07/15 02:29:37;;;;;;;;;;;;;;;25.18;60.16;99497.25;5114524;28;19964;-36
2021/07/15 02:32:11;;;;;;;;;;;;;;;24.92;61.15;99491.59;5115878;28;20029;-38
2021/07/15 02:34:46;;;;;;;;;;;;;;;25.21;60.08;99493.13;5114572;28;19912;-38
2021/07/15 02:37:11;;;;;;;;;;;;;;;25.40;59.39;99497.63;5105170;28;19919;-38
2021/07/15 02:39:36;;;;;;;;;;;;;;;25.27;59.61;99485.69;5094055;28;19916;-38
2021/07/15 02:42:02;;;;;;;;;;;;;;;25.07;60.10;99493.16;5094099;28;20349;-38
2021/07/15 02:44:27;;;;;;;;;;;;;;;25.20;59.45;99496.97;5095275;28;19912;-37
2021/07/15 02:46:52;;;;;;;;;;;;;;;25.28;59.19;99493.53;5094474;28;20029;-38
2021/07/15 02:49:18;;;;;;;;;;;;;;;25.17;59.14;99490.22;5095204;28;20364;-37
2021/07/15 02:51:43;;;;;;;;;;;;;;;25.27;59.04;99500.09;5094057;28;19912;-38
2021/07/15 02:54:08;;;;;;;;;;;;;;;25.20;59.23;99493.44;5095106;28;19916;-38
2021/07/15 02:56:34;;;;;;;;;;;;;;;24.86;60.14;99494.72;5095246;28;19912;-38
2021/07/15 02:59:08;;;;;;;;;;;;;;;25.19;59.15;99492.66;5094617;28;20404;-38
2021/07/15 03:01:56;;;;;;;;;;;;;;;25.36;58.78;99495.53;5094655;28;19916;-39
2021/07/15 03:04:25;;;;;;;;;;;;;;;25.70;57.56;99498.81;5084047;28;19912;-39
2021/07/15 03:06:51;;;;;;;;;;;;;;;25.70;56.75;99504.25;5094882;28;19919;-36
2021/07/15 03:09:21;;;;;;;;;;;;;;;25.49;56.28;99504.78;5092799;28;19916;-38
2021/07/15 03:12:05;;;;;;;;;;;;;;;25.59;56.78;99506.44;5092679;28;20331;-38
2021/07/15 03:14:31;;;;;;;;;;;;;;;25.27;56.54;99505.53;5094388;28;19923;-38
2021/07/15 03:16:57;;;;;;;;;;;;;;;25.21;56.21;99514.09;5094310;28;19924;-38
2021/07/15 03:19:22;;;;;;;;;;;;;;;25.40;56.27;99484.84;5092827;28;19916;-37
2021/07/15 03:21:47;;;;;;;;;;;;;;;25.52;56.35;99506.06;5093249;28;19912;-38
2021/07/15 03:24:13;;;;;;;;;;;;;;;25.73;55.70;99507.19;5092807;28;19916;-38
2021/07/15 03:26:38;;;;;;;;;;;;;;;25.79;55.05;99501.63;5092792;28;20361;-38
2021/07/15 03:29:04;;;;;;;;;;;;;;;25.90;54.02;99492.06;5092899;28;19919;-38
2021/07/15 03:31:29;;;;;;;;;;;;;;;25.64;54.64;99495.41;5094235;28;19999;-38
2021/07/15 03:33:54;;;;;;;;;;;;;;;25.27;54.66;99497.38;5093013;28;19958;-38
2021/07/15 03:36:20;;;;;;;;;;;;;;;25.41;55.23;99496.53;5092479;28;19977;-38
2021/07/15 03:38:46;;;;;;;;;;;;;;;25.72;54.63;99499.31;5092455;28;19912;-38
2021/07/15 03:41:11;;;;;;;;;;;;;;;25.76;54.29;99500.31;5093357;28;20347;-39
2021/07/15 03:43:36;;;;;;;;;;;;;;;25.44;55.18;99501.38;5093526;28;20415;-38
2021/07/15 03:46:02;;;;;;;;;;;;;;;25.59;55.16;99503.72;5092413;28;19912;-38
2021/07/15 03:48:27;;;;;;;;;;;;;;;25.70;55.08;99501.53;5093340;28;20403;-37
2021/07/15 03:50:59;;;;;;;;;;;;;;;25.87;54.83;99500.84;5088660;28;20292;-38
2021/07/15 03:53:24;;;;;;;;;;;;;;;26.10;54.46;99498.94;5092178;28;20320;-38
2021/07/15 03:55:49;;;;;;;;;;;;;;;26.31;54.07;99497.28;5093186;28;19918;-38
2021/07/15 03:58:15;;;;;;;;;;;;;;;25.94;54.99;99493.88;5092158;28;19926;-38
2021/07/15 04:00:42;;;;;;;;;;;;;;;26.02;55.22;99495.03;5093257;28;19965;-37
2021/07/15 04:03:07;;;;;;;;;;;;;;;26.36;54.51;99503.72;5092202;28;19944;-36
2021/07/15 04:05:32;;;;;;;;;;;;;;;26.64;53.98;99496.16;5090868;28;19982;-38
2021/07/15 04:07:58;;;;;;;;;;;;;;;26.97;53.53;99495.72;5091149;28;19913;-38
2021/07/15 04:10:25;;;;;;;;;;;;;;;27.23;52.97;99501.22;5088108;28;19916;-37
2021/07/15 04:12:50;;;;;;;;;;;;;;;27.50;52.09;99509.13;5129835;27;19962;-51
2021/07/15 04:15:16;;;;;;;;;;;;;;;27.84;51.24;99503.94;5100185;28;20047;-40
2021/07/15 04:17:46;;;;;;;;;;;;;;;27.89;51.26;99509.25;5101610;28;19992;-51
2021/07/15 04:20:12;;;;;;;;;;;;;;;28.07;50.84;99508.09;5103541;28;19920;-48
2021/07/15 04:22:38;;;;;;;;;;;;;;;28.36;50.72;99511.22;5101030;28;19951;-52
2021/07/15 04:25:03;;;;;;;;;;;;;;;28.45;50.23;99512.78;5101866;28;20343;-52
2021/07/15 04:27:29;;;;;;;;;;;;;;;28.50;50.15;99513.72;5102315;28;19963;-49
2021/07/15 04:29:58;;;;;;;;;;;;;;;28.36;50.68;99509.28;5101222;28;19926;-48
2021/07/15 04:32:26;;;;;;;;;;;;;;;28.71;50.19;99505.59;5098851;28;19969;-50
2021/07/15 04:34:51;;;;;;;;;;;;;;;28.93;49.17;99510.78;5102823;28;19916;-38
2021/07/15 04:37:17;;;;;;;;;;;;;;;29.20;48.96;99514.19;5100848;28;19928;-38
2021/07/15 04:39:42;;;;;;;;;;;;;;;29.04;49.20;99509.25;5094756;28;19974;-39
2021/07/15 04:42:08;;;;;;;;;;;;;;;29.43;48.48;99512.72;5099031;28;19912;-38
2021/07/15 04:44:34;;;;;;;;;;;;;;;29.35;48.39;99513.56;5100435;28;19912;-40
2021/07/15 04:47:00;;;;;;;;;;;;;;;29.95;47.35;99521.59;5096071;28;19927;-38
2021/07/15 04:49:26;;;;;;;;;;;;;;;30.74;45.68;99516.78;5090590;28;19919;-38
2021/07/15 04:51:51;;;;;;;;;;;;;;;30.88;45.36;99516.47;5091689;28;19912;-38
2021/07/15 04:54:17;;;;;;;;;;;;;;;30.97;45.01;99517.13;5124343;27;19922;-38
2021/07/15 04:56:42;;;;;;;;;;;;;;;31.20;44.29;99516.63;5091433;28;19912;-38
2021/07/15 04:59:07;;;;;;;;;;;;;;;31.40;44.14;99514.88;5091064;28;19912;-38
2021/07/15 05:01:33;;;;;;;;;;;;;;;31.43;43.94;99516.91;5123760;27;20284;-38
2021/07/15 05:03:58;;;;;;;;;;;;;;;31.76;43.68;99515.91;5091399;28;19912;-38
2021/07/15 05:06:23;;;;;;;;;;;;;;;31.93;43.28;99523.03;5089909;28;19977;-38
2021/07/15 05:08:48;;;;;;;;;;;;;;;31.49;43.71;99518.31;5091333;28;19969;-38
2021/07/15 05:11:14;;;;;;;;;;;;;;;30.85;44.97;99519.09;5091251;28;20307;-37
2021/07/15 05:13:39;;;;;;;;;;;;;;;31.26;44.59;99519.94;5090753;28;19966;-36
2021/07/15 05:16:05;;;;;;;;;;;;;;;31.26;44.83;99517.19;5090726;28;19912;-38
2021/07/15 05:18:30;;;;;;;;;;;;;;;32.26;42.27;99519.19;5090520;28;19924;-38
2021/07/15 05:20:55;;;;;;;;;;;;;;;32.09;42.76;99515.63;5089387;28;20371;-38
2021/07/15 05:23:21;;;;;;;;;;;;;;;32.34;42.33;99512.69;5096359;28;19916;-38
2021/07/15 05:25:46;;;;;;;;;;;;;;;32.66;41.60;99512.69;5097956;28;20375;-38
2021/07/15 05:28:11;;;;;;;;;;;;;;;32.88;41.10;99513.97;5100956;28;19934;-37
2021/07/15 05:30:37;;;;;;;;;;;;;;;33.52;39.83;99509.06;5109699;28;19912;-38
2021/07/15 05:33:02;;;;;;;;;;;;;;;33.30;39.55;99502.31;5108181;28;19911;-44
2021/07/15 05:35:27;;;;;;;;;;;;;;;33.22;39.85;99506.88;5089967;28;20343;-38
2021/07/15 05:37:52;;;;;;;;;;;;;;;33.50;39.00;99503.91;5090628;28;20412;-38
2021/07/15 05:40:18;;;;;;;;;;;;;;;33.95;38.37;99504.38;5090856;28;20007;-38
2021/07/15 05:42:43;;;;;;;;;;;;;;;34.34;37.29;99506.25;5090626;28;20296;-38
2021/07/15 05:45:08;;;;;;;;;;;;;;;34.90;36.79;99500.03;5090308;28;19915;-37
2021/07/15 05:47:34;;;;;;;;;;;;;;;34.63;37.65;99501.97;5090307;28;20369;-37
2021/07/15 05:49:59;;;;;;;;;;;;;;;34.75;37.20;99500.97;5079018;28;20304;-38
2021/07/15 05:52:24;;;;;;;;;;;;;;;34.96;36.25;99509.59;5070067;28;19944;-38
2021/07/15 05:54:50;;;;;;;;;;;;;;;35.30;36.14;99500.56;5070134;28;19924;-39
2021/07/15 05:57:16;;;;;;;;;;;;;;;35.52;35.39;99504.38;5069967;28;19912;-38
2021/07/15 05:59:41;;;;;;;;;;;;;;;35.18;35.93;99507.13;5069853;28;19912;-37
2021/07/15 06:02:07;;;;;;;;;;;;;;;35.30;36.04;99501.38;5069325;28;19960;-38
2021/07/15 06:04:33;;;;;;;;;;;;;;;35.26;35.55;99494.97;5069225;28;19969;-38
2021/07/15 06:06:58;;;;;;;;;;;;;;;35.29;35.41;99496.22;5069147;28;19920;-37
2021/07/15 06:09:23;;;;;;;;;;;;;;;35.90;34.01;99492.16;5068199;28;19912;-38
2021/07/15 06:11:49;;;;;;;;;;;;;;;35.27;34.63;99490.25;5069262;28;20402;-38
2021/07/15 06:14:14;;;;;;;;;;;;;;;35.16;35.86;99484.56;5068958;28;19919;-38
2021/07/15 06:16:39;;;;;;;;;;;;;;;35.20;35.40;99482.66;5068789;28;20003;-38
2021/07/15 06:19:05;;;;;;;;;;;;;;;35.76;34.62;99487.28;5097661;28;20249;-37
2021/07/15 06:21:30;;;;;;;;;;;;;;;35.16;35.49;99482.59;5109416;28;19916;-38
2021/07/15 06:23:56;;;;;;;;;;;;;;;35.14;36.01;99479.41;5109789;28;19918;-39
2021/07/15 06:26:21;;;;;;;;;;;;;;;35.28;35.07;99484.34;5109810;28;20409;-39
2021/07/15 06:28:46;;;;;;;;;;;;;;;35.83;34.07;99481.00;5109647;28;20251;-39
2021/07/15 06:31:12;;;;;;;;;;;;;;;35.87;33.96;99473.56;5109722;28;19918;-38
2021/07/15 06:33:38;;;;;;;;;;;;;;;34.61;36.28;99473.91;5109323;28;19911;-38
2021/07/15 06:36:03;;;;;;;;;;;;;;;34.61;35.97;99468.38;5109537;28;20370;-39
2021/07/15 06:38:30;;;;;;;;;;;;;;;35.55;34.90;99460.16;5109438;28;20010;-38
2021/07/15 06:40:56;;;;;;;;;;;;;;;36.36;33.32;99460.50;5109165;28;20372;-38
2021/07/15 06:43:22;;;;;;;;;;;;;;;36.26;33.61;99464.00;5109494;28;20002;-37
2021/07/15 06:45:47;;;;;;;;;;;;;;;35.53;34.38;99459.75;5094405;28;19934;-38
2021/07/15 06:48:13;;;;;;;;;;;;;;;35.92;33.40;99455.78;5092988;28;19915;-39
2021/07/15 06:50:38;;;;;;;;;;;;;;;36.60;33.26;99459.88;5093115;28;20003;-39
2021/07/15 06:53:04;;;;;;;;;;;;;;;37.04;32.20;99449.84;5091066;28;20424;-38
2021/07/15 06:55:29;;;;;;;;;;;;;;;36.69;32.27;99447.69;5092883;28;19938;-38
2021/07/15 06:57:54;;;;;;;;;;;;;;;36.17;33.09;99445.72;5091465;28;19912;-38
2021/07/15 07:00:22;;;;;;;;;;;;;;;35.88;33.58;99446.66;5092883;28;20445;-39
2021/07/15 07:02:47;;;;;;;;;;;;;;;36.65;33.14;99450.44;5091984;28;19916;-39
2021/07/15 07:05:12;;;;;;;;;;;;;;;36.40;32.89;99451.06;5092360;28;19919;-39
2021/07/15 07:07:38;;;;;;;;;;;;;;;36.74;31.77;99447.31;5092077;28;19912;-39
2021/07/15 07:10:06;;;;;;;;;;;;;;;36.67;31.90;99448.09;5091953;28;19956;-38
2021/07/15 07:12:32;;;;;;;;;;;;;;;36.50;31.13;99444.00;5092772;28;19925;-38
2021/07/15 07:14:57;;;;;;;;;;;;;;;37.74;29.62;99436.59;5092465;28;19917;-37
2021/07/15 07:17:22;;;;;;;;;;;;;;;36.63;31.63;99447.22;5091933;28;20307;-39
2021/07/15 07:19:48;;;;;;;;;;;;;;;35.93;32.22;99447.09;5112400;28;19997;-38
2021/07/15 07:22:13;;;;;;;;;;;;;;;36.68;31.78;99438.59;5112139;28;20340;-38
2021/07/15 07:24:38;;;;;;;;;;;;;;;37.24;30.54;99444.00;5111045;28;19984;-38
2021/07/15 07:27:04;;;;;;;;;;;;;;;37.93;29.90;99429.09;5112652;28;19912;-38
2021/07/15 07:29:29;;;;;;;;;;;;;;;37.73;29.92;99429.44;5112309;28;19912;-38
2021/07/15 07:31:54;;;;;;;;;;;;;;;36.87;30.89;99431.16;5112031;28;19923;-38
2021/07/15 07:34:20;;;;;;;;;;;;;;;37.13;30.28;99435.63;5112148;28;19919;-38
2021/07/15 07:36:45;;;;;;;;;;;;;;;36.18;31.15;99429.94;5111369;28;19916;-38
2021/07/15 07:39:10;;;;;;;;;;;;;;;37.20;29.54;99429.31;5112258;28;19978;-39
2021/07/15 07:41:36;;;;;;;;;;;;;;;36.71;29.97;99426.72;5112292;28;19915;-38
2021/07/15 07:44:01;;;;;;;;;;;;;;;36.80;30.31;99426.38;5110890;28;20389;-39
2021/07/15 07:46:26;;;;;;;;;;;;;;;37.11;29.57;99424.91;5091650;28;20030;-39
2021/07/15 07:48:52;;;;;;;;;;;;;;;37.31;29.46;99430.16;5091682;28;20336;-38
2021/07/15 07:51:17;;;;;;;;;;;;;;;37.54;29.14;99421.47;5091703;28;19919;-39
2021/07/15 07:53:44;;;;;;;;;;;;;;;37.77;28.05;99426.69;5091238;28;19989;-38
2021/07/15 07:56:09;;;;;;;;;;;;;;;37.09;29.26;99432.84;5091645;28;19916;-38
2021/07/15 07:58:35;;;;;;;;;;;;;;;36.76;29.82;99425.56;5090859;28;19912;-39
2021/07/15 08:01:00;;;;;;;;;;;;;;;36.64;29.80;99432.19;5091384;28;19966;-38
2021/07/15 08:03:25;;;;;;;;;;;;;;;36.16;30.85;99430.28;5091469;28;19918;-39
2021/07/15 08:05:51;;;;;;;;;;;;;;;36.51;30.64;99428.94;5091356;28;20065;-39
2021/07/15 08:08:18;;;;;;;;;;;;;;;34.80;33.10;99421.31;5091304;28;19913;-38
2021/07/15 08:10:43;;;;;;;;;;;;;;;34.65;33.95;99422.25;5091740;28;20402;-38
2021/07/15 08:13:08;;;;;;;;;;;;;;;35.37;32.84;99417.66;5092313;28;19916;-39
2021/07/15 08:15:34;;;;;;;;;;;;;;;35.61;31.93;99416.34;5092308;28;20015;-37
2021/07/15 08:17:59;;;;;;;;;;;;;;;36.29;31.72;99410.59;5091519;28;20117;-38
2021/07/15 08:20:24;;;;;;;;;;;;;;;35.90;31.98;99411.09;5091906;28;20314;-38
2021/07/15 08:22:50;;;;;;;;;;;;;;;35.56;32.56;99411.16;5091451;28;20031;-38
2021/07/15 08:25:19;;;;;;;;;;;;;;;36.08;32.12;99409.28;5096555;28;19927;-38
2021/07/15 08:27:44;;;;;;;;;;;;;;;35.64;32.61;99407.25;5102327;28;20296;-38
2021/07/15 08:30:09;;;;;;;;;;;;;;;35.92;31.73;99406.75;5094354;28;19916;-38
2021/07/15 08:32:35;;;;;;;;;;;;;;;36.67;30.80;99402.94;5091036;28;19912;-39
2021/07/15 08:35:00;;;;;;;;;;;;;;;35.79;32.50;99403.47;5092166;28;19944;-39
2021/07/15 08:37:26;;;;;;;;;;;;;;;35.65;32.87;99395.03;5092419;28;19912;-38
2021/07/15 08:39:51;;;;;;;;;;;;;;;35.34;33.47;99394.34;5092041;28;20336;-38
2021/07/15 08:42:17;;;;;;;;;;;;;;;35.41;33.36;99391.66;5092190;28;19916;-38
2021/07/15 08:44:42;;;;;;;;;;;;;;;35.25;33.26;99393.84;5090803;28;19934;-37
2021/07/15 08:47:08;;;;;;;;;;;;;;;35.78;32.50;99390.03;5092133;28;19912;-38
2021/07/15 08:49:33;;;;;;;;;;;;;;;35.13;33.18;99386.59;5090069;28;20366;-38
2021/07/15 08:51:58;;;;;;;;;;;;;;;35.28;32.57;99378.47;5091496;28;20368;-38
2021/07/15 08:54:33;;;;;;;;;;;;;;;35.69;32.56;99381.25;5090771;28;19943;-39
2021/07/15 08:56:59;;;;;;;;;;;;;;;35.81;32.50;99383.72;5090418;28;20014;-39
2021/07/15 08:59:25;;;;;;;;;;;;;;;35.87;32.57;99379.44;5091394;28;20352;-38
2021/07/15 09:01:51;;;;;;;;;;;;;;;35.71;31.76;99376.16;5091326;28;19916;-39
2021/07/15 09:04:17;;;;;;;;;;;;;;;35.59;31.81;99380.75;5091154;28;19912;-38
2021/07/15 09:06:43;;;;;;;;;;;;;;;34.47;34.04;99372.31;5089727;28;20402;-39
2021/07/15 09:09:09;;;;;;;;;;;;;;;34.47;34.20;99369.56;5088997;28;19923;-38
2021/07/15 09:11:35;;;;;;;;;;;;;;;35.41;32.71;99364.00;5089071;28;19912;-39
2021/07/15 09:14:00;;;;;;;;;;;;;;;35.82;32.63;99363.97;5090516;28;19920;-36
2021/07/15 09:16:25;;;;;;;;;;;;;;;36.42;31.74;99339.84;5090728;28;19916;-38
2021/07/15 09:19:00;;;;;;;;;;;;;;;36.38;31.03;99363.97;5091362;28;19982;-39
2021/07/15 09:21:27;;;;;;;;;;;;;;;35.79;31.17;99350.91;5091132;28;19917;-39
2021/07/15 09:23:52;;;;;;;;;;;;;;;35.71;31.41;99352.03;5090345;28;19923;-39
2021/07/15 09:26:17;;;;;;;;;;;;;;;35.61;32.17;99353.50;5088417;28;19919;-38
2021/07/15 09:28:43;;;;;;;;;;;;;;;35.17;32.80;99345.97;5090052;28;19935;-38
2021/07/15 09:31:15;;;;;;;;;;;;;;;34.83;33.43;99347.94;5090248;28;19958;-38
2021/07/15 09:33:40;;;;;;;;;;;;;;;34.73;33.68;99337.53;5088085;28;19912;-37
2021/07/15 09:36:10;;;;;;;;;;;;;;;34.72;33.58;99347.81;5088557;28;19919;-40
2021/07/15 09:38:37;;;;;;;;;;;;;;;34.35;34.89;99339.38;5090167;28;19912;-39
2021/07/15 09:41:04;;;;;;;;;;;;;;;35.30;33.39;99326.34;5090117;28;19974;-39
2021/07/15 09:43:29;;;;;;;;;;;;;;;35.68;32.01;99327.91;5090972;28;20108;-39
2021/07/15 09:46:14;;;;;;;;;;;;;;;36.19;31.69;99324.34;5089737;28;20359;-38
2021/07/15 09:48:40;;;;;;;;;;;;;;;35.07;33.26;99321.72;5090671;28;19920;-39
2021/07/15 09:51:10;;;;;;;;;;;;;;;35.35;32.18;99320.47;5091211;28;19916;-39
2021/07/15 09:53:36;;;;;;;;;;;;;;;36.04;30.82;99321.81;5090780;28;19916;-40
2021/07/15 09:56:05;;;;;;;;;;;;;;;36.14;30.03;99318.34;5090450;28;19984;-39
2021/07/15 09:58:33;;;;;;;;;;;;;;;36.26;30.29;99325.53;5090333;28;19959;-39
2021/07/15 10:01:03;;;;;;;;;;;;;;;35.62;31.13;99319.13;5090067;28;19923;-38
2021/07/15 10:03:28;;;;;;;;;;;;;;;35.39;31.10;99316.53;5090078;28;19916;-39
2021/07/15 10:05:54;;;;;;;;;;;;;;;35.67;31.05;99306.13;5088337;28;20018;-39
2021/07/15 10:08:38;;;;;;;;;;;;;;;35.65;30.40;99309.25;5089641;28;20265;-39
2021/07/15 10:11:13;;;;;;;;;;;;;;;35.47;30.37;99320.19;5087998;28;19955;-39
2021/07/15 10:13:39;;;;;;;;;;;;;;;34.36;31.75;99305.09;5087501;28;19912;-38
2021/07/15 10:16:04;;;;;;;;;;;;;;;34.94;31.15;99301.88;5090330;28;19961;-38
2021/07/15 10:18:33;;;;;;;;;;;;;;;35.47;30.07;99306.38;5089400;28;20323;-39
2021/07/15 10:20:59;;;;;;;;;;;;;;;34.72;31.08;99311.88;5092270;28;19916;-37
2021/07/15 10:23:34;;;;;;;;;;;;;;;35.04;29.76;99287.38;5094432;28;20263;-39
2021/07/15 10:25:59;;;;;;;;;;;;;;;35.71;29.05;99296.69;5094456;28;19912;-38
2021/07/15 10:28:25;;;;;;;;;;;;;;;36.91;27.76;99285.84;5094304;28;19912;-39
2021/07/15 10:30:50;;;;;;;;;;;;;;;36.25;28.04;99285.19;5093169;28;19912;-39
2021/07/15 10:33:16;;;;;;;;;;;;;;;36.35;27.93;99285.22;5092918;28;19912;-39
2021/07/15 10:35:41;;;;;;;;;;;;;;;36.59;27.64;99278.22;5092960;28;19912;-39
2021/07/15 10:38:06;;;;;;;;;;;;;;;36.83;26.92;99275.13;5093098;28;19912;-38
2021/07/15 10:40:31;;;;;;;;;;;;;;;36.42;27.51;99281.69;5092832;28;19916;-38
2021/07/15 10:42:57;;;;;;;;;;;;;;;36.47;26.91;99275.00;5093019;28;19923;-39
2021/07/15 10:45:22;;;;;;;;;;;;;;;36.30;27.39;99299.44;5092878;28;20388;-38
2021/07/15 10:47:51;;;;;;;;;;;;;;;35.86;28.66;99280.19;5092996;28;19923;-39
2021/07/15 10:50:16;;;;;;;;;;;;;;;36.49;27.51;99284.50;5092787;28;19924;-39
2021/07/15 10:52:41;;;;;;;;;;;;;;;37.11;26.59;99268.81;5093845;28;19923;-39
2021/07/15 10:55:07;;;;;;;;;;;;;;;36.95;26.56;99270.00;5092822;28;19992;-40
2021/07/15 10:57:32;;;;;;;;;;;;;;;37.09;26.13;99269.25;5093734;28;20002;-38
2021/07/15 11:00:19;;;;;;;;;;;;;;;37.04;25.86;99260.53;5093543;28;19916;-38
2021/07/15 11:02:44;;;;;;;;;;;;;;;37.03;26.44;99256.94;5093496;28;19912;-39
2021/07/15 11:05:23;;;;;;;;;;;;;;;37.09;26.11;99262.88;5093126;28;19931;-39
2021/07/15 11:07:48;;;;;;;;;;;;;;;36.92;26.20;99259.72;5093418;28;20368;-40
2021/07/15 11:10:15;;;;;;;;;;;;;;;37.24;25.73;99255.41;5093300;28;19923;-39
2021/07/15 11:12:40;;;;;;;;;;;;;;;36.98;25.72;99258.13;5093816;28;19970;-40
2021/07/15 11:15:09;;;;;;;;;;;;;;;37.00;26.33;99256.94;5093656;28;19912;-37
2021/07/15 11:17:45;;;;;;;;;;;;;;;36.66;26.98;99248.97;5093365;28;20344;-40
2021/07/15 11:20:11;;;;;;;;;;;;;;;36.95;26.31;99252.56;5093568;28;19920;-39
2021/07/15 11:22:39;;;;;;;;;;;;;;;37.23;25.47;99248.28;5093792;28;20387;-39
2021/07/15 11:25:05;;;;;;;;;;;;;;;37.85;24.91;99239.53;5093841;28;19965;-39
2021/07/15 11:27:31;;;;;;;;;;;;;;;37.79;24.26;99240.31;5093667;28;20349;-40
2021/07/15 11:29:57;;;;;;;;;;;;;;;37.48;24.40;99237.94;5093748;28;19912;-39
2021/07/15 11:32:28;;;;;;;;;;;;;;;37.29;24.70;99233.59;5092330;28;19935;-40
2021/07/15 11:34:55;;;;;;;;;;;;;;;37.27;25.09;99236.00;5093761;28;19976;-39
2021/07/15 11:37:26;;;;;;;;;;;;;;;37.65;24.61;99241.16;5092946;28;19970;-39
2021/07/15 11:39:55;;;;;;;;;;;;;;;37.51;24.71;99220.53;5092355;28;19916;-38
2021/07/15 11:42:21;;;;;;;;;;;;;;;37.55;24.87;99226.06;5091921;28;19913;-39
2021/07/15 11:45:15;;;;;;;;;;;;;;;36.63;25.13;99227.53;5092597;28;19919;-38
2021/07/15 11:47:59;;;;;;;;;;;;;;;37.06;24.54;99216.56;5087949;28;19935;-38
2021/07/15 11:50:30;;;;;;;;;;;;;;;37.11;25.06;99221.69;5092839;28;19977;-39
2021/07/15 11:53:14;;;;;;;;;;;;;;;36.72;25.37;99214.91;5092941;28;19913;-39
2021/07/15 11:55:40;;;;;;;;;;;;;;;36.95;25.42;99219.31;5092898;28;19912;-39
2021/07/15 11:58:05;;;;;;;;;;;;;;;37.17;24.62;99209.06;5092859;28;20015;-39
2021/07/15 12:00:30;;;;;;;;;;;;;;;37.41;24.18;99210.22;5091189;28;19956;-39
2021/07/15 12:02:56;;;;;;;;;;;;;;;37.77;23.99;99203.84;5091209;28;19916;-39
2021/07/15 12:05:29;;;;;;;;;;;;;;;37.58;24.43;99202.28;5092164;28;20385;-39
2021/07/15 12:08:08;;;;;;;;;;;;;;;37.43;25.09;99204.28;5092472;28;19912;-39
2021/07/15 12:10:35;;;;;;;;;;;;;;;37.47;24.16;99207.81;5092323;28;20116;-38
2021/07/15 12:13:01;;;;;;;;;;;;;;;37.38;24.50;99202.69;5092274;28;19951;-38
2021/07/15 12:15:29;;;;;;;;;;;;;;;37.01;24.53;99187.22;5092177;28;20313;-38
2021/07/15 12:17:55;;;;;;;;;;;;;;;37.79;23.66;99191.13;5098778;28;19926;-39
2021/07/15 12:20:21;;;;;;;;;;;;;;;38.26;23.58;99186.22;5112292;28;19983;-38
2021/07/15 12:22:49;;;;;;;;;;;;;;;37.59;24.26;99190.00;5097367;28;19912;-39
2021/07/15 12:25:18;;;;;;;;;;;;;;;37.63;23.74;99190.81;5108884;28;20443;-39
2021/07/15 12:27:44;;;;;;;;;;;;;;;37.53;23.88;99176.53;5098061;28;19912;-39
2021/07/15 12:30:09;;;;;;;;;;;;;;;37.37;24.68;99179.69;5102598;28;19923;-39
2021/07/15 12:32:35;;;;;;;;;;;;;;;37.27;24.72;99183.28;5098443;28;20005;-39
2021/07/15 12:35:00;;;;;;;;;;;;;;;37.10;24.17;99189.63;5108567;28;19912;-39
2021/07/15 12:37:29;;;;;;;;;;;;;;;37.48;24.03;99165.03;5094228;28;19911;-40
2021/07/15 12:39:58;;;;;;;;;;;;;;;37.88;23.50;99176.84;5103906;28;19916;-39
2021/07/15 12:42:23;;;;;;;;;;;;;;;37.95;23.91;99174.03;5103556;28;19912;-38
2021/07/15 12:44:48;;;;;;;;;;;;;;;37.97;23.55;99173.63;5096180;28;20441;-39
2021/07/15 12:47:13;;;;;;;;;;;;;;;37.39;23.75;99168.22;5108776;28;19911;-40